createdAt,value
2023-05-20T00:01:53.483Z,59.10
2023-05-20T00:04:21.108Z,58.90
2023-05-20T00:06:48.436Z,59.00
2023-05-20T00:09:17.187Z,58.90
2023-05-20T00:11:45.717Z,59.00
2023-05-20T00:14:12.995Z,59.00
2023-05-20T00:16:40.401Z,59.20
2023-05-20T00:19:08.283Z,59.20
2023-05-20T00:21:35.943Z,59.40
2023-05-20T00:24:03.382Z,59.50
2023-05-20T00:26:31.179Z,59.70
2023-05-20T00:28:59.511Z,59.70
2023-05-20T00:31:26.839Z,59.70
2023-05-20T00:33:54.106Z,59.70
2023-05-20T00:36:21.561Z,59.80
2023-05-20T00:38:48.985Z,59.90
2023-05-20T00:41:16.317Z,59.90
2023-05-20T00:43:43.563Z,60.00
2023-05-20T00:46:11.149Z,60.10
2023-05-20T00:48:43.364Z,60.10
2023-05-20T00:51:13.033Z,60.20
2023-05-20T00:53:42.017Z,60.10
2023-05-20T00:56:09.450Z,60.10
2023-05-20T00:58:37.986Z,60.30
2023-05-20T01:01:06.300Z,60.30
2023-05-20T01:03:34.168Z,60.10
2023-05-20T01:06:02.409Z,60.20
2023-05-20T01:08:29.966Z,60.00
2023-05-20T01:11:06.671Z,59.90
2023-05-20T01:13:51.400Z,59.90
2023-05-20T01:16:20.126Z,59.90
2023-05-20T01:18:48.738Z,59.70
2023-05-20T01:21:18.475Z,59.70
2023-05-20T01:23:45.749Z,59.70
2023-05-20T01:26:17.134Z,59.60
2023-05-20T01:28:46.826Z,59.80
2023-05-20T01:31:30.787Z,59.70
2023-05-20T01:33:59.395Z,59.80
2023-05-20T01:36:28.167Z,59.70
2023-05-20T01:38:57.493Z,59.70
2023-05-20T01:41:26.866Z,59.70
2023-05-20T01:43:55.977Z,59.70
2023-05-20T01:46:23.325Z,59.70
2023-05-20T01:48:50.654Z,59.70
2023-05-20T01:51:18.323Z,59.70
2023-05-20T01:53:45.806Z,59.70
2023-05-20T01:56:13.672Z,59.70
2023-05-20T01:58:40.957Z,59.80
2023-05-20T02:01:08.501Z,59.80
2023-05-20T02:03:35.917Z,60.20
2023-05-20T02:06:03.490Z,60.20
2023-05-20T02:08:31.009Z,60.40
2023-05-20T02:10:58.261Z,60.80
2023-05-20T02:13:25.616Z,60.90
2023-05-20T02:15:53.015Z,61.00
2023-05-20T02:18:20.567Z,61.50
2023-05-20T02:20:48.220Z,61.60
2023-05-20T02:23:15.724Z,61.90
2023-05-20T02:25:43.680Z,61.80
2023-05-20T02:28:11.500Z,62.20
2023-05-20T02:30:39.232Z,62.40
2023-05-20T02:33:07.019Z,62.40
2023-05-20T02:35:34.708Z,62.40
2023-05-20T02:38:02.304Z,62.60
2023-05-20T02:40:29.586Z,62.80
2023-05-20T02:42:56.882Z,62.90
2023-05-20T02:45:24.248Z,63.00
2023-05-20T02:47:51.733Z,63.20
2023-05-20T02:50:19.212Z,63.20
2023-05-20T02:52:47.199Z,63.30
2023-05-20T02:55:14.788Z,63.30
2023-05-20T02:57:42.205Z,63.30
2023-05-20T03:00:11.465Z,63.40
2023-05-20T03:02:39.301Z,63.60
2023-05-20T03:05:08.091Z,63.40
2023-05-20T03:07:36.613Z,63.40
2023-05-20T03:10:07.994Z,63.40
2023-05-20T03:12:35.580Z,63.40
2023-05-20T03:15:03.650Z,63.40
2023-05-20T03:17:31.338Z,63.40
2023-05-20T03:19:58.912Z,63.80
2023-05-20T03:22:26.356Z,63.80
2023-05-20T03:24:53.772Z,63.70
2023-05-20T03:27:21.461Z,63.80
2023-05-20T03:29:48.906Z,63.90
2023-05-20T03:32:16.718Z,64.30
2023-05-20T03:34:44.152Z,64.30
2023-05-20T03:37:11.913Z,64.30
2023-05-20T03:39:39.555Z,64.40
2023-05-20T03:42:07.876Z,64.50
2023-05-20T03:44:36.078Z,64.50
2023-05-20T03:47:03.468Z,64.40
2023-05-20T03:49:31.779Z,65.20
2023-05-20T03:51:59.197Z,64.50
2023-05-20T03:54:26.601Z,64.50
2023-05-20T03:56:54.740Z,64.50
2023-05-20T03:59:22.313Z,64.60
2023-05-20T04:01:49.767Z,64.50
2023-05-20T04:04:17.266Z,64.50
2023-05-20T04:06:44.690Z,64.50
2023-05-20T04:09:12.087Z,64.50
2023-05-20T04:11:39.456Z,64.40
2023-05-20T04:14:06.869Z,64.40
2023-05-20T04:16:34.349Z,64.30
2023-05-20T04:19:02.624Z,64.20
2023-05-20T04:21:30.054Z,64.20
2023-05-20T04:23:57.433Z,64.10
2023-05-20T04:26:25.025Z,64.00
2023-05-20T04:28:52.520Z,63.90
2023-05-20T04:31:26.857Z,64.00
2023-05-20T04:33:54.628Z,64.10
2023-05-20T04:36:23.054Z,64.10
2023-05-20T04:38:50.514Z,64.00
2023-05-20T04:41:17.767Z,63.80
2023-05-20T04:43:45.921Z,63.80
2023-05-20T04:46:14.104Z,63.70
2023-05-20T04:48:43.812Z,63.50
2023-05-20T04:51:11.174Z,63.40
2023-05-20T04:53:38.642Z,63.40
2023-05-20T04:56:06.057Z,63.20
2023-05-20T04:58:33.564Z,63.30
2023-05-20T05:01:01.485Z,63.40
2023-05-20T05:03:29.195Z,63.50
2023-05-20T05:05:58.686Z,63.30
2023-05-20T05:08:27.004Z,62.80
2023-05-20T05:10:54.356Z,62.80
2023-05-20T05:13:21.705Z,62.70
2023-05-20T05:15:57.839Z,62.60
2023-05-20T05:18:25.358Z,62.00
2023-05-20T05:21:02.465Z,61.50
2023-05-20T05:23:30.359Z,60.70
2023-05-20T05:25:57.937Z,60.60
2023-05-20T05:28:25.561Z,60.40
2023-05-20T05:30:56.234Z,60.70
2023-05-20T05:33:23.815Z,60.30
2023-05-20T05:35:51.863Z,59.40
2023-05-20T05:38:19.368Z,58.30
2023-05-20T05:40:47.375Z,57.80
2023-05-20T05:43:16.202Z,57.20
2023-05-20T05:45:45.018Z,56.80
2023-05-20T05:48:12.341Z,56.90
2023-05-20T05:50:43.536Z,56.40
2023-05-20T05:53:11.224Z,55.20
2023-05-20T05:55:40.542Z,54.40
2023-05-20T05:58:08.197Z,53.70
2023-05-20T06:00:35.693Z,52.30
2023-05-20T06:03:03.319Z,52.00
2023-05-20T06:05:34.595Z,51.70
2023-05-20T06:08:02.541Z,50.00
2023-05-20T06:10:32.020Z,48.00
2023-05-20T06:13:00.607Z,48.20
2023-05-20T06:15:28.474Z,46.70
2023-05-20T06:17:56.882Z,46.90
2023-05-20T06:20:25.788Z,47.00
2023-05-20T06:22:53.116Z,45.10
2023-05-20T06:25:23.047Z,45.10
2023-05-20T06:27:51.334Z,44.20
2023-05-20T06:30:20.842Z,44.20
2023-05-20T06:32:49.133Z,42.80
2023-05-20T06:35:17.296Z,43.60
2023-05-20T06:37:44.756Z,43.30
2023-05-20T06:40:12.699Z,41.60
2023-05-20T06:42:40.190Z,42.00
2023-05-20T06:45:07.991Z,40.30
2023-05-20T06:47:38.979Z,39.30
2023-05-20T06:50:08.297Z,38.70
2023-05-20T06:52:36.404Z,38.50
2023-05-20T06:55:04.720Z,37.80
2023-05-20T06:57:32.079Z,37.70
2023-05-20T06:59:59.350Z,37.70
2023-05-20T07:02:26.934Z,37.70
2023-05-20T07:04:54.342Z,38.80
2023-05-20T07:07:21.822Z,38.20
2023-05-20T07:09:49.555Z,39.30
2023-05-20T07:12:17.033Z,39.50
2023-05-20T07:14:44.417Z,38.20
2023-05-20T07:17:11.892Z,38.40
2023-05-20T07:19:39.807Z,38.10
2023-05-20T07:22:07.499Z,38.60
2023-05-20T07:24:41.440Z,38.90
2023-05-20T07:27:08.885Z,39.40
2023-05-20T07:29:37.073Z,40.00
2023-05-20T07:32:05.634Z,41.00
2023-05-20T07:34:34.999Z,41.50
2023-05-20T07:37:02.342Z,42.10
2023-05-20T07:39:29.670Z,42.20
2023-05-20T07:41:56.945Z,41.60
2023-05-20T07:44:24.664Z,40.10
2023-05-20T07:46:53.998Z,40.20
2023-05-20T07:49:22.172Z,39.80
2023-05-20T07:51:49.702Z,39.20
2023-05-20T07:54:17.326Z,38.60
2023-05-20T07:56:47.510Z,37.90
2023-05-20T07:59:15.029Z,37.60
2023-05-20T08:01:48.223Z,37.40
2023-05-20T08:04:18.000Z,37.60
2023-05-20T08:06:46.728Z,37.70
2023-05-20T08:09:21.804Z,37.80
2023-05-20T08:11:52.486Z,38.30
2023-05-20T08:14:19.833Z,38.60
2023-05-20T08:16:52.950Z,38.30
2023-05-20T08:19:22.300Z,37.50
2023-05-20T08:21:50.624Z,37.50
2023-05-20T08:24:18.635Z,36.40
2023-05-20T08:26:46.350Z,37.10
2023-05-20T08:29:14.906Z,37.00
2023-05-20T08:31:42.430Z,37.10
2023-05-20T08:34:09.983Z,37.40
2023-05-20T08:36:37.274Z,37.60
2023-05-20T08:39:05.467Z,37.80
2023-05-20T08:41:32.964Z,38.30
2023-05-20T08:44:02.497Z,38.90
2023-05-20T08:46:31.410Z,39.40
2023-05-20T08:48:59.932Z,39.80
2023-05-20T08:51:28.398Z,40.40
2023-05-20T08:53:55.871Z,40.00
2023-05-20T08:56:23.556Z,40.40
2023-05-20T08:58:51.100Z,40.40
2023-05-20T09:01:18.713Z,39.60
2023-05-20T09:03:46.154Z,39.20
2023-05-20T09:06:20.789Z,39.80
2023-05-20T09:08:51.102Z,39.30
2023-05-20T09:11:22.308Z,38.80
2023-05-20T09:13:50.705Z,39.20
2023-05-20T09:16:18.442Z,38.80
2023-05-20T09:18:46.650Z,38.40
2023-05-20T09:21:14.178Z,38.60
2023-05-20T09:23:48.753Z,38.80
2023-05-20T09:26:18.464Z,37.90
2023-05-20T09:28:46.277Z,37.70
2023-05-20T09:31:17.067Z,38.00
2023-05-20T09:33:44.856Z,37.30
2023-05-20T09:36:16.406Z,37.70
2023-05-20T09:38:45.294Z,36.60
2023-05-20T09:41:13.830Z,37.20
2023-05-20T09:43:42.364Z,38.00
2023-05-20T09:46:10.790Z,37.80
2023-05-20T09:48:39.679Z,37.80
2023-05-20T09:51:07.958Z,38.30
2023-05-20T09:53:36.459Z,39.20
2023-05-20T09:56:04.141Z,39.60
2023-05-20T09:58:35.793Z,40.00
2023-05-20T10:01:03.439Z,40.80
2023-05-20T10:03:32.018Z,40.40
2023-05-20T10:06:34.153Z,40.40
2023-05-20T10:09:17.340Z,42.10
2023-05-20T10:11:54.036Z,42.10
2023-05-20T10:14:40.780Z,42.10
2023-05-20T10:17:30.374Z,42.50
2023-05-20T10:19:59.556Z,43.20
2023-05-20T10:22:31.482Z,43.20
2023-05-20T10:25:07.664Z,43.40
2023-05-20T10:27:46.460Z,43.60
2023-05-20T10:30:19.876Z,43.70
2023-05-20T10:32:54.583Z,43.70
2023-05-20T10:35:26.667Z,43.60
2023-05-20T10:38:06.185Z,43.70
2023-05-20T10:40:33.812Z,43.60
2023-05-20T10:43:10.946Z,43.30
2023-05-20T10:45:50.573Z,43.00
2023-05-20T10:48:32.140Z,43.20
2023-05-20T10:51:05.153Z,43.50
2023-05-20T10:53:41.653Z,43.40
2023-05-20T10:56:19.529Z,43.70
2023-05-20T10:58:47.664Z,44.40
2023-05-20T11:01:16.871Z,44.30
2023-05-20T11:03:47.219Z,44.50
2023-05-20T11:06:17.604Z,44.80
2023-05-20T11:08:46.660Z,44.60
2023-05-20T11:11:15.281Z,43.80
2023-05-20T11:13:42.843Z,44.50
2023-05-20T11:16:10.457Z,43.70
2023-05-20T11:18:37.985Z,43.90
2023-05-20T11:21:05.652Z,44.10
2023-05-20T11:23:33.558Z,43.90
2023-05-20T11:26:01.685Z,44.10
2023-05-20T11:28:30.797Z,45.00
2023-05-20T11:30:59.488Z,43.60
2023-05-20T11:33:27.477Z,43.90
2023-05-20T11:35:54.981Z,43.80
2023-05-20T11:38:22.809Z,43.80
2023-05-20T11:40:54.723Z,43.90
2023-05-20T11:43:24.086Z,42.90
2023-05-20T11:45:59.782Z,42.70
2023-05-20T11:48:27.566Z,42.90
2023-05-20T11:50:56.412Z,43.50
2023-05-20T11:53:24.769Z,43.00
2023-05-20T11:56:01.750Z,43.10
2023-05-20T11:58:32.490Z,43.10
2023-05-20T12:01:09.619Z,43.30
2023-05-20T12:03:47.686Z,43.60
2023-05-20T12:06:16.500Z,43.70
2023-05-20T12:08:43.867Z,44.10
2023-05-20T12:11:11.333Z,44.20
2023-05-20T12:13:39.109Z,43.60
2023-05-20T12:16:06.885Z,43.30
2023-05-20T12:18:34.447Z,43.80
2023-05-20T12:21:01.985Z,43.90
2023-05-20T12:23:30.790Z,44.30
2023-05-20T12:25:58.157Z,44.10
2023-05-20T12:28:25.591Z,43.70
2023-05-20T12:30:52.962Z,43.70
2023-05-20T12:33:20.678Z,43.30
2023-05-20T12:35:47.937Z,43.30
2023-05-20T12:38:15.346Z,43.90
2023-05-20T12:40:42.632Z,43.60
2023-05-20T12:43:10.140Z,43.50
2023-05-20T12:45:37.475Z,42.50
2023-05-20T12:48:07.179Z,42.50
2023-05-20T12:50:34.927Z,42.10
2023-05-20T12:53:02.413Z,42.10
2023-05-20T12:55:29.693Z,42.30
2023-05-20T12:57:57.268Z,42.30
2023-05-20T13:00:24.696Z,42.40
2023-05-20T13:02:52.924Z,42.50
2023-05-20T13:05:20.625Z,42.00
2023-05-20T13:07:49.048Z,42.20
2023-05-20T13:10:17.846Z,42.00
2023-05-20T13:12:46.271Z,42.20
2023-05-20T13:15:14.682Z,42.30
2023-05-20T13:17:42.714Z,41.50
2023-05-20T13:20:11.040Z,41.40
2023-05-20T13:22:38.729Z,41.20
2023-05-20T13:25:06.689Z,41.10
2023-05-20T13:27:33.944Z,41.30
2023-05-20T13:30:01.902Z,41.70
2023-05-20T13:32:29.630Z,41.50
2023-05-20T13:34:57.232Z,41.60
2023-05-20T13:37:24.587Z,41.50
2023-05-20T13:39:51.970Z,42.00
2023-05-20T13:42:19.518Z,41.80
2023-05-20T13:44:47.386Z,42.10
2023-05-20T13:47:14.967Z,41.80
2023-05-20T13:49:42.436Z,41.90
2023-05-20T13:52:09.943Z,41.90
2023-05-20T13:54:37.356Z,41.90
2023-05-20T13:57:07.791Z,42.50
2023-05-20T13:59:35.406Z,41.90
2023-05-20T14:02:03.150Z,41.60
2023-05-20T14:04:39.289Z,42.00
2023-05-20T14:07:09.316Z,41.80
2023-05-20T14:09:37.396Z,41.60
2023-05-20T14:12:06.230Z,41.30
2023-05-20T14:14:33.860Z,41.20
2023-05-20T14:17:01.515Z,41.20
2023-05-20T14:19:29.134Z,41.60
2023-05-20T14:21:58.750Z,42.40
2023-05-20T14:24:26.663Z,41.50
2023-05-20T14:26:54.049Z,41.10
2023-05-20T14:29:21.524Z,41.00
2023-05-20T14:31:49.000Z,41.00
2023-05-20T14:34:16.548Z,41.00
2023-05-20T14:36:44.215Z,41.10
2023-05-20T14:39:11.907Z,40.90
2023-05-20T14:41:39.425Z,40.80
2023-05-20T14:44:06.794Z,41.10
2023-05-20T14:46:34.357Z,40.70
2023-05-20T14:49:02.050Z,40.70
2023-05-20T14:51:29.423Z,40.80
2023-05-20T14:53:56.722Z,41.40
2023-05-20T14:56:24.215Z,41.50
2023-05-20T14:58:51.452Z,41.10
2023-05-20T15:01:18.858Z,41.10
2023-05-20T15:03:46.286Z,41.20
2023-05-20T15:06:13.720Z,41.40
2023-05-20T15:08:41.863Z,41.20
2023-05-20T15:11:09.177Z,41.10
2023-05-20T15:13:37.230Z,41.20
2023-05-20T15:16:07.120Z,41.40
2023-05-20T15:18:34.508Z,41.10
2023-05-20T15:21:01.871Z,41.30
2023-05-20T15:23:29.146Z,41.10
2023-05-20T15:25:58.439Z,41.30
2023-05-20T15:28:25.836Z,41.20
2023-05-20T15:30:56.356Z,41.30
2023-05-20T15:33:23.902Z,41.20
2023-05-20T15:35:51.332Z,41.10
2023-05-20T15:38:18.717Z,41.20
2023-05-20T15:40:47.318Z,41.20
2023-05-20T15:43:14.634Z,41.90
2023-05-20T15:45:42.036Z,42.10
2023-05-20T15:48:09.505Z,42.30
2023-05-20T15:50:37.618Z,41.30
2023-05-20T15:53:07.150Z,41.40
2023-05-20T15:55:34.920Z,40.90
2023-05-20T15:58:02.629Z,41.00
2023-05-20T16:00:30.259Z,41.20
2023-05-20T16:02:57.824Z,41.00
2023-05-20T16:05:25.583Z,41.20
2023-05-20T16:07:53.414Z,41.30
2023-05-20T16:10:22.041Z,41.40
2023-05-20T16:12:50.441Z,41.50
2023-05-20T16:15:17.943Z,40.90
2023-05-20T16:17:45.413Z,41.60
2023-05-20T16:20:12.689Z,41.70
2023-05-20T16:22:40.383Z,41.50
2023-05-20T16:25:08.230Z,42.00
2023-05-20T16:27:35.934Z,41.80
2023-05-20T16:30:06.834Z,41.60
2023-05-20T16:32:34.406Z,41.90
2023-05-20T16:35:02.045Z,41.80
2023-05-20T16:37:29.500Z,42.00
2023-05-20T16:39:57.035Z,42.20
2023-05-20T16:42:24.493Z,42.30
2023-05-20T16:44:52.557Z,42.20
2023-05-20T16:47:20.002Z,42.20
2023-05-20T16:49:47.398Z,42.20
2023-05-20T16:52:14.946Z,42.20
2023-05-20T16:54:42.415Z,42.00
2023-05-20T16:57:12.409Z,42.40
2023-05-20T16:59:40.648Z,42.60
2023-05-20T17:02:08.014Z,43.30
2023-05-20T17:04:36.629Z,42.60
2023-05-20T17:07:04.571Z,42.60
2023-05-20T17:09:31.885Z,42.70
2023-05-20T17:11:59.199Z,42.70
2023-05-20T17:14:26.605Z,43.10
2023-05-20T17:16:54.147Z,43.10
2023-05-20T17:19:21.640Z,43.20
2023-05-20T17:21:49.074Z,43.20
2023-05-20T17:24:16.590Z,43.40
2023-05-20T17:26:44.102Z,43.40
2023-05-20T17:29:11.605Z,43.80
2023-05-20T17:31:39.198Z,43.60
2023-05-20T17:34:06.903Z,43.50
2023-05-20T17:36:34.312Z,42.70
2023-05-20T17:39:04.440Z,42.90
2023-05-20T17:41:31.912Z,42.90
2023-05-20T17:43:59.517Z,42.90
2023-05-20T17:46:27.320Z,43.00
2023-05-20T17:48:54.810Z,43.00
2023-05-20T17:51:22.384Z,43.00
2023-05-20T17:53:50.085Z,43.20
2023-05-20T17:56:17.569Z,43.30
2023-05-20T17:58:45.412Z,43.40
2023-05-20T18:01:12.828Z,43.50
2023-05-20T18:03:40.652Z,43.70
2023-05-20T18:06:08.709Z,43.70
2023-05-20T18:08:36.138Z,43.90
2023-05-20T18:11:03.709Z,44.10
2023-05-20T18:13:31.432Z,44.20
2023-05-20T18:15:58.807Z,44.40
2023-05-20T18:18:26.311Z,44.50
2023-05-20T18:20:53.705Z,44.70
2023-05-20T18:23:21.117Z,44.90
2023-05-20T18:25:48.716Z,45.00
2023-05-20T18:28:16.374Z,45.20
2023-05-20T18:30:43.747Z,45.90
2023-05-20T18:33:11.423Z,45.50
2023-05-20T18:35:39.353Z,45.60
2023-05-20T18:38:07.166Z,45.60
2023-05-20T18:40:34.708Z,45.70
2023-05-20T18:43:02.308Z,46.10
2023-05-20T18:45:29.907Z,46.10
2023-05-20T18:47:59.270Z,46.30
2023-05-20T18:50:26.720Z,46.50
2023-05-20T18:52:54.014Z,46.60
2023-05-20T18:55:21.882Z,46.70
2023-05-20T18:57:49.387Z,47.00
2023-05-20T19:00:17.953Z,47.00
2023-05-20T19:02:45.473Z,47.30
2023-05-20T19:05:12.978Z,47.30
2023-05-20T19:07:40.910Z,47.50
2023-05-20T19:10:09.071Z,47.50
2023-05-20T19:12:36.496Z,47.70
2023-05-20T19:15:05.071Z,47.90
2023-05-20T19:17:32.366Z,47.90
2023-05-20T19:19:59.859Z,48.00
2023-05-20T19:22:27.251Z,48.20
2023-05-20T19:24:54.565Z,48.40
2023-05-20T19:27:21.951Z,48.40
2023-05-20T19:29:49.344Z,48.50
2023-05-20T19:32:16.851Z,48.70
2023-05-20T19:34:44.364Z,48.90
2023-05-20T19:37:11.788Z,49.00
2023-05-20T19:39:39.238Z,49.00
2023-05-20T19:42:06.936Z,49.00
2023-05-20T19:44:34.190Z,49.20
2023-05-20T19:47:01.728Z,49.30
2023-05-20T19:49:29.477Z,49.30
2023-05-20T19:51:56.942Z,49.30
2023-05-20T19:54:24.366Z,49.70
2023-05-20T19:56:51.814Z,49.60
2023-05-20T19:59:19.084Z,49.70
2023-05-20T20:01:46.522Z,49.90
2023-05-20T20:04:16.959Z,49.90
2023-05-20T20:06:45.326Z,50.00
2023-05-20T20:09:12.589Z,50.10
2023-05-20T20:11:39.900Z,50.20
2023-05-20T20:14:07.225Z,50.30
2023-05-20T20:16:34.689Z,50.40
2023-05-20T20:19:02.840Z,50.50
2023-05-20T20:21:30.246Z,50.40
2023-05-20T20:23:57.658Z,50.50
2023-05-20T20:26:26.578Z,50.60
2023-05-20T20:28:53.877Z,50.80
2023-05-20T20:31:21.248Z,50.70
2023-05-20T20:33:48.500Z,50.90
2023-05-20T20:36:16.679Z,50.80
2023-05-20T20:38:46.655Z,50.90
2023-05-20T20:41:16.106Z,51.00
2023-05-20T20:43:47.563Z,50.90
2023-05-20T20:46:14.932Z,51.30
2023-05-20T20:48:45.821Z,51.30
2023-05-20T20:51:15.048Z,51.40
2023-05-20T20:53:43.341Z,51.40
2023-05-20T20:56:10.796Z,51.70
2023-05-20T20:58:39.186Z,51.60
2023-05-20T21:01:07.157Z,51.80
2023-05-20T21:03:34.717Z,51.80
2023-05-20T21:06:02.522Z,52.00
2023-05-20T21:08:31.834Z,52.00
2023-05-20T21:10:59.625Z,52.20
2023-05-20T21:13:28.268Z,52.40
2023-05-20T21:15:55.968Z,52.50
2023-05-20T21:18:24.052Z,52.50
2023-05-20T21:20:53.387Z,52.60
2023-05-20T21:23:22.294Z,52.80
2023-05-20T21:25:50.193Z,52.90
2023-05-20T21:28:17.644Z,52.90
2023-05-20T21:30:45.035Z,53.00
2023-05-20T21:33:12.404Z,53.00
2023-05-20T21:35:39.666Z,53.20
2023-05-20T21:38:07.124Z,53.50
2023-05-20T21:40:34.624Z,53.60
2023-05-20T21:43:02.072Z,53.70
2023-05-20T21:45:29.510Z,53.90
2023-05-20T21:47:56.930Z,53.70
2023-05-20T21:50:24.672Z,54.00
2023-05-20T21:52:52.766Z,54.00
2023-05-20T21:55:23.392Z,54.20
2023-05-20T21:57:51.170Z,54.20
2023-05-20T22:00:20.587Z,54.40
2023-05-20T22:02:48.469Z,54.50
2023-05-20T22:05:17.204Z,54.70
2023-05-20T22:07:44.529Z,54.80
2023-05-20T22:10:13.634Z,55.00
2023-05-20T22:12:44.151Z,54.80
2023-05-20T22:15:11.763Z,55.00
2023-05-20T22:17:39.394Z,55.00
2023-05-20T22:20:08.406Z,55.10
2023-05-20T22:22:35.943Z,55.10
2023-05-20T22:25:03.692Z,55.20
2023-05-20T22:27:31.652Z,55.30
2023-05-20T22:29:59.402Z,55.30
2023-05-20T22:32:26.872Z,55.50
2023-05-20T22:34:58.175Z,55.60
2023-05-20T22:37:26.571Z,55.50
2023-05-20T22:39:53.861Z,55.70
2023-05-20T22:42:21.214Z,55.70
2023-05-20T22:44:48.618Z,55.70
2023-05-20T22:47:15.983Z,55.70
2023-05-20T22:49:43.383Z,55.70
2023-05-20T22:52:11.548Z,55.90
2023-05-20T22:54:38.888Z,55.80
2023-05-20T22:57:06.221Z,55.90
2023-05-20T22:59:34.215Z,56.10
2023-05-20T23:02:02.267Z,56.10
2023-05-20T23:04:29.855Z,56.30
2023-05-20T23:06:59.298Z,56.30
2023-05-20T23:09:26.984Z,56.50
2023-05-20T23:11:54.238Z,56.50
2023-05-20T23:14:21.648Z,56.60
2023-05-20T23:16:49.029Z,56.60
2023-05-20T23:19:16.780Z,56.60
2023-05-20T23:21:44.246Z,56.70
2023-05-20T23:24:11.876Z,56.80
2023-05-20T23:26:39.925Z,56.90
2023-05-20T23:29:08.391Z,57.00
2023-05-20T23:31:35.913Z,57.00
2023-05-20T23:34:03.866Z,57.00
2023-05-20T23:36:34.418Z,57.30
2023-05-20T23:39:02.717Z,57.40
2023-05-20T23:41:30.225Z,57.40
2023-05-20T23:43:57.501Z,57.50
2023-05-20T23:46:24.803Z,57.40
2023-05-20T23:48:52.950Z,57.50
2023-05-20T23:51:20.690Z,57.50
2023-05-20T23:53:48.299Z,57.70
2023-05-20T23:56:15.891Z,57.70
2023-05-20T23:58:43.183Z,57.70
